sensor_id;sensor_type;location;lat;lon;timestamp;temperature;humidity
17154;DHT22;8692;52.164;7.558;2023-06-26T00:00:53;22.80;99.90
17154;DHT22;8692;52.164;7.558;2023-06-26T00:03:21;22.80;99.90
17154;DHT22;8692;52.164;7.558;2023-06-26T00:05:50;22.80;99.90
17154;DHT22;8692;52.164;7.558;2023-06-26T00:08:19;22.70;99.90
17154;DHT22;8692;52.164;7.558;2023-06-26T00:10:47;22.70;99.90
17154;DHT22;8692;52.164;7.558;2023-06-26T00:13:18;22.70;99.90
17154;DHT22;8692;52.164;7.558;2023-06-26T00:15:46;22.60;99.90
17154;DHT22;8692;52.164;7.558;2023-06-26T00:18:14;22.60;99.90
17154;DHT22;8692;52.164;7.558;2023-06-26T00:20:42;22.60;99.90
17154;DHT22;8692;52.164;7.558;2023-06-26T00:23:11;22.50;99.90
17154;DHT22;8692;52.164;7.558;2023-06-26T00:25:41;22.50;99.90
17154;DHT22;8692;52.164;7.558;2023-06-26T00:28:09;22.50;99.90
17154;DHT22;8692;52.164;7.558;2023-06-26T00:30:37;22.50;99.90
17154;DHT22;8692;52.164;7.558;2023-06-26T00:33:06;22.40;99.90
17154;DHT22;8692;52.164;7.558;2023-06-26T00:35:34;22.40;99.90
17154;DHT22;8692;52.164;7.558;2023-06-26T00:38:03;22.40;99.90
17154;DHT22;8692;52.164;7.558;2023-06-26T00:40:31;22.40;99.90
17154;DHT22;8692;52.164;7.558;2023-06-26T00:43:01;22.30;99.90
17154;DHT22;8692;52.164;7.558;2023-06-26T00:45:29;22.30;99.90
17154;DHT22;8692;52.164;7.558;2023-06-26T00:48:10;22.30;99.90
17154;DHT22;8692;52.164;7.558;2023-06-26T00:50:39;22.30;99.90
17154;DHT22;8692;52.164;7.558;2023-06-26T00:53:09;22.30;99.90
17154;DHT22;8692;52.164;7.558;2023-06-26T00:55:37;22.30;99.90
17154;DHT22;8692;52.164;7.558;2023-06-26T00:58:06;22.30;99.90
17154;DHT22;8692;52.164;7.558;2023-06-26T01:00:35;22.20;99.90
17154;DHT22;8692;52.164;7.558;2023-06-26T01:03:03;22.20;99.90
17154;DHT22;8692;52.164;7.558;2023-06-26T01:05:31;22.10;99.90
17154;DHT22;8692;52.164;7.558;2023-06-26T01:07:59;22.10;99.90
17154;DHT22;8692;52.164;7.558;2023-06-26T01:10:28;22.10;99.90
17154;DHT22;8692;52.164;7.558;2023-06-26T01:12:57;22.10;99.90
17154;DHT22;8692;52.164;7.558;2023-06-26T01:15:26;22.00;99.90
17154;DHT22;8692;52.164;7.558;2023-06-26T01:17:55;22.00;99.90
17154;DHT22;8692;52.164;7.558;2023-06-26T01:20:29;22.00;99.90
17154;DHT22;8692;52.164;7.558;2023-06-26T01:23:04;22.00;99.90
17154;DHT22;8692;52.164;7.558;2023-06-26T01:25:37;22.00;99.90
17154;DHT22;8692;52.164;7.558;2023-06-26T01:28:11;22.00;99.90
17154;DHT22;8692;52.164;7.558;2023-06-26T01:30:43;21.90;99.90
17154;DHT22;8692;52.164;7.558;2023-06-26T01:33:12;21.90;99.90
17154;DHT22;8692;52.164;7.558;2023-06-26T01:35:41;21.90;99.90
17154;DHT22;8692;52.164;7.558;2023-06-26T01:38:14;21.90;99.90
17154;DHT22;8692;52.164;7.558;2023-06-26T01:40:43;21.80;99.90
17154;DHT22;8692;52.164;7.558;2023-06-26T01:43:15;21.80;99.90
17154;DHT22;8692;52.164;7.558;2023-06-26T01:45:47;21.80;99.90
17154;DHT22;8692;52.164;7.558;2023-06-26T01:48:16;21.80;99.90
17154;DHT22;8692;52.164;7.558;2023-06-26T01:50:48;21.70;99.90
17154;DHT22;8692;52.164;7.558;2023-06-26T01:53:21;21.70;99.90
17154;DHT22;8692;52.164;7.558;2023-06-26T01:55:54;21.70;99.90
17154;DHT22;8692;52.164;7.558;2023-06-26T01:58:25;21.70;99.90
17154;DHT22;8692;52.164;7.558;2023-06-26T02:00:54;21.60;99.90
17154;DHT22;8692;52.164;7.558;2023-06-26T02:03:22;21.60;99.90
17154;DHT22;8692;52.164;7.558;2023-06-26T02:05:51;21.60;99.90
17154;DHT22;8692;52.164;7.558;2023-06-26T02:08:19;21.60;99.90
17154;DHT22;8692;52.164;7.558;2023-06-26T02:10:49;21.60;99.90
17154;DHT22;8692;52.164;7.558;2023-06-26T02:13:17;21.60;99.90
17154;DHT22;8692;52.164;7.558;2023-06-26T02:15:46;21.50;99.90
17154;DHT22;8692;52.164;7.558;2023-06-26T02:18:14;21.50;99.90
17154;DHT22;8692;52.164;7.558;2023-06-26T02:20:42;21.50;99.90
17154;DHT22;8692;52.164;7.558;2023-06-26T02:23:11;21.50;99.90
17154;DHT22;8692;52.164;7.558;2023-06-26T02:25:39;21.40;99.90
17154;DHT22;8692;52.164;7.558;2023-06-26T02:28:09;21.40;99.90
17154;DHT22;8692;52.164;7.558;2023-06-26T02:30:37;21.40;99.90
17154;DHT22;8692;52.164;7.558;2023-06-26T02:33:07;21.40;99.90
17154;DHT22;8692;52.164;7.558;2023-06-26T02:35:35;21.40;99.90
17154;DHT22;8692;52.164;7.558;2023-06-26T02:38:03;21.30;99.90
17154;DHT22;8692;52.164;7.558;2023-06-26T02:40:31;21.30;99.90
17154;DHT22;8692;52.164;7.558;2023-06-26T02:43:00;21.30;99.90
17154;DHT22;8692;52.164;7.558;2023-06-26T02:45:30;21.30;99.90
17154;DHT22;8692;52.164;7.558;2023-06-26T02:47:59;21.30;99.90
17154;DHT22;8692;52.164;7.558;2023-06-26T02:50:28;21.20;99.90
17154;DHT22;8692;52.164;7.558;2023-06-26T02:53:05;21.20;99.90
17154;DHT22;8692;52.164;7.558;2023-06-26T02:55:37;21.20;99.90
17154;DHT22;8692;52.164;7.558;2023-06-26T02:58:05;21.20;99.90
17154;DHT22;8692;52.164;7.558;2023-06-26T03:00:34;21.20;99.90
17154;DHT22;8692;52.164;7.558;2023-06-26T03:03:12;21.10;99.90
17154;DHT22;8692;52.164;7.558;2023-06-26T03:05:41;21.10;99.90
17154;DHT22;8692;52.164;7.558;2023-06-26T03:08:09;21.10;99.90
17154;DHT22;8692;52.164;7.558;2023-06-26T03:10:38;21.10;99.90
17154;DHT22;8692;52.164;7.558;2023-06-26T03:13:07;21.10;99.90
17154;DHT22;8692;52.164;7.558;2023-06-26T03:15:35;21.10;99.90
17154;DHT22;8692;52.164;7.558;2023-06-26T03:18:03;21.10;99.90
17154;DHT22;8692;52.164;7.558;2023-06-26T03:20:31;21.10;99.90
17154;DHT22;8692;52.164;7.558;2023-06-26T03:23:01;21.10;99.90
17154;DHT22;8692;52.164;7.558;2023-06-26T03:25:28;21.00;99.90
17154;DHT22;8692;52.164;7.558;2023-06-26T03:28:08;21.00;99.90
17154;DHT22;8692;52.164;7.558;2023-06-26T03:30:36;20.90;99.90
17154;DHT22;8692;52.164;7.558;2023-06-26T03:33:05;20.90;99.90
17154;DHT22;8692;52.164;7.558;2023-06-26T03:35:33;20.90;99.90
17154;DHT22;8692;52.164;7.558;2023-06-26T03:38:04;20.90;99.90
17154;DHT22;8692;52.164;7.558;2023-06-26T03:40:32;20.90;99.90
17154;DHT22;8692;52.164;7.558;2023-06-26T03:43:00;20.80;99.90
17154;DHT22;8692;52.164;7.558;2023-06-26T03:45:38;20.80;99.90
17154;DHT22;8692;52.164;7.558;2023-06-26T03:48:06;20.80;99.90
17154;DHT22;8692;52.164;7.558;2023-06-26T03:50:35;20.80;99.90
17154;DHT22;8692;52.164;7.558;2023-06-26T03:53:05;20.80;99.90
17154;DHT22;8692;52.164;7.558;2023-06-26T03:55:33;20.80;99.90
17154;DHT22;8692;52.164;7.558;2023-06-26T03:58:03;20.80;99.90
17154;DHT22;8692;52.164;7.558;2023-06-26T04:00:32;20.80;99.90
17154;DHT22;8692;52.164;7.558;2023-06-26T04:03:00;20.80;99.90
17154;DHT22;8692;52.164;7.558;2023-06-26T04:05:30;20.80;99.90
17154;DHT22;8692;52.164;7.558;2023-06-26T04:07:58;20.80;99.90
17154;DHT22;8692;52.164;7.558;2023-06-26T04:10:28;20.90;99.90
17154;DHT22;8692;52.164;7.558;2023-06-26T04:12:56;20.90;99.90
17154;DHT22;8692;52.164;7.558;2023-06-26T04:15:24;20.90;99.90
17154;DHT22;8692;52.164;7.558;2023-06-26T04:17:52;20.90;99.90
17154;DHT22;8692;52.164;7.558;2023-06-26T04:20:20;20.90;99.90
17154;DHT22;8692;52.164;7.558;2023-06-26T04:22:48;20.90;99.90
17154;DHT22;8692;52.164;7.558;2023-06-26T04:25:16;20.90;99.90
17154;DHT22;8692;52.164;7.558;2023-06-26T04:27:46;20.90;99.90
17154;DHT22;8692;52.164;7.558;2023-06-26T04:30:14;20.90;99.90
17154;DHT22;8692;52.164;7.558;2023-06-26T04:32:42;20.90;99.90
17154;DHT22;8692;52.164;7.558;2023-06-26T04:35:10;20.90;99.90
17154;DHT22;8692;52.164;7.558;2023-06-26T04:37:38;20.90;99.90
17154;DHT22;8692;52.164;7.558;2023-06-26T04:40:07;20.90;99.90
17154;DHT22;8692;52.164;7.558;2023-06-26T04:42:38;20.90;99.90
17154;DHT22;8692;52.164;7.558;2023-06-26T04:45:07;21.00;99.90
17154;DHT22;8692;52.164;7.558;2023-06-26T04:47:35;20.90;99.90
17154;DHT22;8692;52.164;7.558;2023-06-26T04:50:04;21.00;99.90
17154;DHT22;8692;52.164;7.558;2023-06-26T04:52:32;21.00;99.90
17154;DHT22;8692;52.164;7.558;2023-06-26T04:55:00;21.00;99.90
17154;DHT22;8692;52.164;7.558;2023-06-26T04:57:28;21.10;99.90
17154;DHT22;8692;52.164;7.558;2023-06-26T04:59:56;21.10;99.90
17154;DHT22;8692;52.164;7.558;2023-06-26T05:02:25;21.10;99.90
17154;DHT22;8692;52.164;7.558;2023-06-26T05:04:54;21.20;99.90
17154;DHT22;8692;52.164;7.558;2023-06-26T05:07:22;21.20;99.90
17154;DHT22;8692;52.164;7.558;2023-06-26T05:09:50;21.20;99.90
17154;DHT22;8692;52.164;7.558;2023-06-26T05:12:18;21.30;99.90
17154;DHT22;8692;52.164;7.558;2023-06-26T05:14:46;21.30;99.90
17154;DHT22;8692;52.164;7.558;2023-06-26T05:17:14;21.40;99.90
17154;DHT22;8692;52.164;7.558;2023-06-26T05:19:44;21.40;99.90
17154;DHT22;8692;52.164;7.558;2023-06-26T05:22:12;21.50;99.90
17154;DHT22;8692;52.164;7.558;2023-06-26T05:24:42;21.50;99.90
17154;DHT22;8692;52.164;7.558;2023-06-26T05:27:11;21.60;99.90
17154;DHT22;8692;52.164;7.558;2023-06-26T05:29:46;21.60;99.90
17154;DHT22;8692;52.164;7.558;2023-06-26T05:32:16;21.70;99.90
17154;DHT22;8692;52.164;7.558;2023-06-26T05:34:47;21.70;99.90
17154;DHT22;8692;52.164;7.558;2023-06-26T05:37:20;21.80;99.90
17154;DHT22;8692;52.164;7.558;2023-06-26T05:39:49;21.80;99.90
17154;DHT22;8692;52.164;7.558;2023-06-26T05:42:17;21.80;99.90
17154;DHT22;8692;52.164;7.558;2023-06-26T05:44:45;21.90;99.90
17154;DHT22;8692;52.164;7.558;2023-06-26T05:47:13;21.90;99.90
17154;DHT22;8692;52.164;7.558;2023-06-26T05:49:41;22.00;99.90
17154;DHT22;8692;52.164;7.558;2023-06-26T05:52:12;22.00;99.90
17154;DHT22;8692;52.164;7.558;2023-06-26T05:54:41;22.10;99.90
17154;DHT22;8692;52.164;7.558;2023-06-26T05:57:09;22.10;99.90
17154;DHT22;8692;52.164;7.558;2023-06-26T05:59:40;22.20;99.90
17154;DHT22;8692;52.164;7.558;2023-06-26T06:02:08;22.20;99.90
17154;DHT22;8692;52.164;7.558;2023-06-26T06:04:36;22.30;99.90
17154;DHT22;8692;52.164;7.558;2023-06-26T06:07:05;22.30;99.90
17154;DHT22;8692;52.164;7.558;2023-06-26T06:09:34;22.30;99.90
17154;DHT22;8692;52.164;7.558;2023-06-26T06:12:03;22.30;99.90
17154;DHT22;8692;52.164;7.558;2023-06-26T06:14:31;22.40;99.90
17154;DHT22;8692;52.164;7.558;2023-06-26T06:16:59;22.40;99.90
17154;DHT22;8692;52.164;7.558;2023-06-26T06:19:27;22.50;99.90
17154;DHT22;8692;52.164;7.558;2023-06-26T06:21:55;22.60;99.90
17154;DHT22;8692;52.164;7.558;2023-06-26T06:24:23;22.70;99.90
17154;DHT22;8692;52.164;7.558;2023-06-26T06:26:53;22.70;99.90
17154;DHT22;8692;52.164;7.558;2023-06-26T06:29:21;22.70;99.90
17154;DHT22;8692;52.164;7.558;2023-06-26T06:31:49;22.80;99.90
17154;DHT22;8692;52.164;7.558;2023-06-26T06:34:18;22.90;99.90
17154;DHT22;8692;52.164;7.558;2023-06-26T06:36:46;22.90;99.90
17154;DHT22;8692;52.164;7.558;2023-06-26T06:39:14;23.00;99.90
17154;DHT22;8692;52.164;7.558;2023-06-26T06:41:42;23.00;99.90
17154;DHT22;8692;52.164;7.558;2023-06-26T06:44:12;23.00;99.90
17154;DHT22;8692;52.164;7.558;2023-06-26T06:46:40;23.00;99.90
17154;DHT22;8692;52.164;7.558;2023-06-26T06:49:08;23.00;99.90
17154;DHT22;8692;52.164;7.558;2023-06-26T06:51:36;23.00;99.90
17154;DHT22;8692;52.164;7.558;2023-06-26T06:54:04;23.00;99.90
17154;DHT22;8692;52.164;7.558;2023-06-26T06:56:32;23.00;99.90
17154;DHT22;8692;52.164;7.558;2023-06-26T06:59:00;22.90;99.90
17154;DHT22;8692;52.164;7.558;2023-06-26T07:01:30;22.90;99.90
17154;DHT22;8692;52.164;7.558;2023-06-26T07:03:58;22.80;99.90
17154;DHT22;8692;52.164;7.558;2023-06-26T07:06:26;22.80;99.90
17154;DHT22;8692;52.164;7.558;2023-06-26T07:08:54;22.80;99.90
17154;DHT22;8692;52.164;7.558;2023-06-26T07:11:22;22.80;99.90
17154;DHT22;8692;52.164;7.558;2023-06-26T07:13:50;22.80;99.90
17154;DHT22;8692;52.164;7.558;2023-06-26T07:16:18;22.80;99.90
17154;DHT22;8692;52.164;7.558;2023-06-26T07:18:47;22.80;99.90
17154;DHT22;8692;52.164;7.558;2023-06-26T07:21:16;22.80;99.90
17154;DHT22;8692;52.164;7.558;2023-06-26T07:23:44;22.80;99.90
17154;DHT22;8692;52.164;7.558;2023-06-26T07:26:14;22.70;99.90
17154;DHT22;8692;52.164;7.558;2023-06-26T07:28:42;22.80;99.90
17154;DHT22;8692;52.164;7.558;2023-06-26T07:31:10;22.80;99.90
17154;DHT22;8692;52.164;7.558;2023-06-26T07:33:38;22.80;99.90
17154;DHT22;8692;52.164;7.558;2023-06-26T07:36:08;22.80;99.90
17154;DHT22;8692;52.164;7.558;2023-06-26T07:38:36;22.80;99.90
17154;DHT22;8692;52.164;7.558;2023-06-26T07:41:04;22.80;99.90
17154;DHT22;8692;52.164;7.558;2023-06-26T07:43:32;22.90;99.90
17154;DHT22;8692;52.164;7.558;2023-06-26T07:46:00;22.90;99.90
17154;DHT22;8692;52.164;7.558;2023-06-26T07:48:28;23.00;99.90
17154;DHT22;8692;52.164;7.558;2023-06-26T07:50:56;23.00;99.90
17154;DHT22;8692;52.164;7.558;2023-06-26T07:53:25;23.00;99.90
17154;DHT22;8692;52.164;7.558;2023-06-26T07:55:53;23.10;99.90
17154;DHT22;8692;52.164;7.558;2023-06-26T07:58:21;23.20;99.90
17154;DHT22;8692;52.164;7.558;2023-06-26T08:00:49;23.30;99.90
17154;DHT22;8692;52.164;7.558;2023-06-26T08:03:17;23.40;99.90
17154;DHT22;8692;52.164;7.558;2023-06-26T08:06:01;23.50;99.90
17154;DHT22;8692;52.164;7.558;2023-06-26T08:08:31;23.60;99.90
17154;DHT22;8692;52.164;7.558;2023-06-26T08:10:59;23.70;99.90
17154;DHT22;8692;52.164;7.558;2023-06-26T08:13:27;23.80;99.90
17154;DHT22;8692;52.164;7.558;2023-06-26T08:15:55;23.90;99.90
17154;DHT22;8692;52.164;7.558;2023-06-26T08:18:23;23.90;99.90
17154;DHT22;8692;52.164;7.558;2023-06-26T08:20:51;24.00;99.90
17154;DHT22;8692;52.164;7.558;2023-06-26T08:23:20;24.00;99.90
17154;DHT22;8692;52.164;7.558;2023-06-26T08:25:53;24.10;99.90
17154;DHT22;8692;52.164;7.558;2023-06-26T08:28:25;24.20;99.90
17154;DHT22;8692;52.164;7.558;2023-06-26T08:30:53;24.30;99.90
17154;DHT22;8692;52.164;7.558;2023-06-26T08:33:21;24.40;99.90
17154;DHT22;8692;52.164;7.558;2023-06-26T08:35:50;24.40;99.90
17154;DHT22;8692;52.164;7.558;2023-06-26T08:38:18;24.40;99.90
17154;DHT22;8692;52.164;7.558;2023-06-26T08:40:48;24.50;99.90
17154;DHT22;8692;52.164;7.558;2023-06-26T08:43:17;24.50;99.90
17154;DHT22;8692;52.164;7.558;2023-06-26T08:45:46;24.60;99.90
17154;DHT22;8692;52.164;7.558;2023-06-26T08:48:18;24.60;99.90
17154;DHT22;8692;52.164;7.558;2023-06-26T08:50:49;24.60;99.90
17154;DHT22;8692;52.164;7.558;2023-06-26T08:53:23;24.60;99.90
17154;DHT22;8692;52.164;7.558;2023-06-26T08:55:54;24.60;99.90
17154;DHT22;8692;52.164;7.558;2023-06-26T08:58:26;24.60;99.90
17154;DHT22;8692;52.164;7.558;2023-06-26T09:00:54;24.60;99.90
17154;DHT22;8692;52.164;7.558;2023-06-26T09:03:24;24.60;99.90
17154;DHT22;8692;52.164;7.558;2023-06-26T09:05:53;24.60;99.90
17154;DHT22;8692;52.164;7.558;2023-06-26T09:08:20;24.60;99.90
17154;DHT22;8692;52.164;7.558;2023-06-26T09:10:48;24.50;99.90
17154;DHT22;8692;52.164;7.558;2023-06-26T09:13:18;24.50;99.90
17154;DHT22;8692;52.164;7.558;2023-06-26T09:15:57;24.50;99.90
17154;DHT22;8692;52.164;7.558;2023-06-26T09:18:25;24.60;99.90
17154;DHT22;8692;52.164;7.558;2023-06-26T09:20:54;24.60;99.90
17154;DHT22;8692;52.164;7.558;2023-06-26T09:23:22;24.70;99.90
17154;DHT22;8692;52.164;7.558;2023-06-26T09:25:51;24.70;99.90
17154;DHT22;8692;52.164;7.558;2023-06-26T09:28:20;24.70;99.90
17154;DHT22;8692;52.164;7.558;2023-06-26T09:30:48;24.70;99.90
17154;DHT22;8692;52.164;7.558;2023-06-26T09:33:20;24.80;99.90
17154;DHT22;8692;52.164;7.558;2023-06-26T09:35:48;24.80;99.90
17154;DHT22;8692;52.164;7.558;2023-06-26T09:38:16;24.80;99.90
17154;DHT22;8692;52.164;7.558;2023-06-26T09:40:45;24.90;99.80
17154;DHT22;8692;52.164;7.558;2023-06-26T09:43:13;24.90;99.90
17154;DHT22;8692;52.164;7.558;2023-06-26T09:45:41;24.90;98.90
17154;DHT22;8692;52.164;7.558;2023-06-26T09:48:10;25.00;97.80
17154;DHT22;8692;52.164;7.558;2023-06-26T09:50:42;25.00;97.00
17154;DHT22;8692;52.164;7.558;2023-06-26T09:53:30;25.00;97.50
17154;DHT22;8692;52.164;7.558;2023-06-26T09:56:05;25.10;96.80
17154;DHT22;8692;52.164;7.558;2023-06-26T09:58:33;25.20;96.00
17154;DHT22;8692;52.164;7.558;2023-06-26T10:01:04;25.30;96.70
17154;DHT22;8692;52.164;7.558;2023-06-26T10:03:34;25.40;95.30
17154;DHT22;8692;52.164;7.558;2023-06-26T10:06:04;25.50;95.50
17154;DHT22;8692;52.164;7.558;2023-06-26T10:08:34;25.50;95.50
17154;DHT22;8692;52.164;7.558;2023-06-26T10:11:04;25.60;93.70
17154;DHT22;8692;52.164;7.558;2023-06-26T10:13:42;25.60;92.90
17154;DHT22;8692;52.164;7.558;2023-06-26T10:16:13;25.60;93.60
17154;DHT22;8692;52.164;7.558;2023-06-26T10:18:44;25.60;92.80
17154;DHT22;8692;52.164;7.558;2023-06-26T10:21:14;25.60;90.90
17154;DHT22;8692;52.164;7.558;2023-06-26T10:23:44;25.70;91.00
17154;DHT22;8692;52.164;7.558;2023-06-26T10:26:14;25.70;90.40
17154;DHT22;8692;52.164;7.558;2023-06-26T10:28:44;25.80;92.30
17154;DHT22;8692;52.164;7.558;2023-06-26T10:31:14;25.90;90.30
17154;DHT22;8692;52.164;7.558;2023-06-26T10:33:43;25.90;90.30
17154;DHT22;8692;52.164;7.558;2023-06-26T10:36:16;25.90;90.30
17154;DHT22;8692;52.164;7.558;2023-06-26T10:38:49;25.90;90.50
17154;DHT22;8692;52.164;7.558;2023-06-26T10:41:20;25.90;88.80
17154;DHT22;8692;52.164;7.558;2023-06-26T10:43:50;26.00;90.10
17154;DHT22;8692;52.164;7.558;2023-06-26T10:46:19;26.10;87.30
17154;DHT22;8692;52.164;7.558;2023-06-26T10:48:56;26.10;87.40
17154;DHT22;8692;52.164;7.558;2023-06-26T10:51:26;26.20;90.30
17154;DHT22;8692;52.164;7.558;2023-06-26T10:53:54;26.30;87.00
17154;DHT22;8692;52.164;7.558;2023-06-26T10:56:41;26.30;82.50
17154;DHT22;8692;52.164;7.558;2023-06-26T10:59:16;26.20;81.20
17154;DHT22;8692;52.164;7.558;2023-06-26T11:01:47;26.20;80.30
17154;DHT22;8692;52.164;7.558;2023-06-26T11:04:36;26.20;79.30
17154;DHT22;8692;52.164;7.558;2023-06-26T11:07:18;26.20;79.80
17154;DHT22;8692;52.164;7.558;2023-06-26T11:09:57;26.20;78.70
17154;DHT22;8692;52.164;7.558;2023-06-26T11:12:37;26.20;81.20
17154;DHT22;8692;52.164;7.558;2023-06-26T11:15:09;26.30;79.90
17154;DHT22;8692;52.164;7.558;2023-06-26T11:17:37;26.40;77.80
17154;DHT22;8692;52.164;7.558;2023-06-26T11:20:07;26.40;81.20
17154;DHT22;8692;52.164;7.558;2023-06-26T11:22:38;26.40;79.80
17154;DHT22;8692;52.164;7.558;2023-06-26T11:25:07;26.40;81.10
17154;DHT22;8692;52.164;7.558;2023-06-26T11:27:38;26.40;81.50
17154;DHT22;8692;52.164;7.558;2023-06-26T11:30:08;26.30;79.50
17154;DHT22;8692;52.164;7.558;2023-06-26T11:32:37;26.20;81.00
17154;DHT22;8692;52.164;7.558;2023-06-26T11:35:06;26.30;80.50
17154;DHT22;8692;52.164;7.558;2023-06-26T11:37:34;26.30;80.60
17154;DHT22;8692;52.164;7.558;2023-06-26T11:40:17;26.40;79.60
17154;DHT22;8692;52.164;7.558;2023-06-26T11:42:45;26.40;81.40
17154;DHT22;8692;52.164;7.558;2023-06-26T11:45:14;26.40;79.70
17154;DHT22;8692;52.164;7.558;2023-06-26T11:47:42;26.40;79.50
17154;DHT22;8692;52.164;7.558;2023-06-26T11:50:15;26.30;78.50
17154;DHT22;8692;52.164;7.558;2023-06-26T11:52:43;26.30;79.20
17154;DHT22;8692;52.164;7.558;2023-06-26T11:55:11;26.30;80.30
17154;DHT22;8692;52.164;7.558;2023-06-26T11:57:41;26.30;80.00
17154;DHT22;8692;52.164;7.558;2023-06-26T12:00:13;26.30;79.10
17154;DHT22;8692;52.164;7.558;2023-06-26T12:02:41;26.30;81.10
17154;DHT22;8692;52.164;7.558;2023-06-26T12:05:10;26.40;80.70
17154;DHT22;8692;52.164;7.558;2023-06-26T12:07:39;26.40;79.10
17154;DHT22;8692;52.164;7.558;2023-06-26T12:10:09;26.50;79.90
17154;DHT22;8692;52.164;7.558;2023-06-26T12:12:40;26.50;79.20
17154;DHT22;8692;52.164;7.558;2023-06-26T12:15:12;26.40;77.10
17154;DHT22;8692;52.164;7.558;2023-06-26T12:17:40;26.40;77.80
17154;DHT22;8692;52.164;7.558;2023-06-26T12:20:18;26.30;78.90
17154;DHT22;8692;52.164;7.558;2023-06-26T12:22:46;26.20;78.70
17154;DHT22;8692;52.164;7.558;2023-06-26T12:25:15;26.20;77.70
17154;DHT22;8692;52.164;7.558;2023-06-26T12:27:46;26.00;79.20
17154;DHT22;8692;52.164;7.558;2023-06-26T12:30:14;26.10;78.30
17154;DHT22;8692;52.164;7.558;2023-06-26T12:32:44;26.10;78.40
17154;DHT22;8692;52.164;7.558;2023-06-26T12:35:12;26.20;80.30
17154;DHT22;8692;52.164;7.558;2023-06-26T12:37:43;26.20;77.80
17154;DHT22;8692;52.164;7.558;2023-06-26T12:40:19;26.10;76.20
17154;DHT22;8692;52.164;7.558;2023-06-26T12:42:51;25.90;76.30
17154;DHT22;8692;52.164;7.558;2023-06-26T12:45:19;25.80;76.10
17154;DHT22;8692;52.164;7.558;2023-06-26T12:47:50;25.90;76.90
17154;DHT22;8692;52.164;7.558;2023-06-26T12:50:19;25.90;78.00
17154;DHT22;8692;52.164;7.558;2023-06-26T12:52:47;25.90;76.60
17154;DHT22;8692;52.164;7.558;2023-06-26T12:55:15;25.80;76.60
17154;DHT22;8692;52.164;7.558;2023-06-26T12:57:43;25.80;75.70
17154;DHT22;8692;52.164;7.558;2023-06-26T13:00:14;25.80;73.40
17154;DHT22;8692;52.164;7.558;2023-06-26T13:02:42;25.90;73.00
17154;DHT22;8692;52.164;7.558;2023-06-26T13:05:11;25.90;73.60
17154;DHT22;8692;52.164;7.558;2023-06-26T13:07:39;25.90;73.70
17154;DHT22;8692;52.164;7.558;2023-06-26T13:10:07;26.00;69.20
17154;DHT22;8692;52.164;7.558;2023-06-26T13:12:35;26.10;72.40
17154;DHT22;8692;52.164;7.558;2023-06-26T13:15:04;26.10;70.40
17154;DHT22;8692;52.164;7.558;2023-06-26T13:17:34;26.20;70.60
17154;DHT22;8692;52.164;7.558;2023-06-26T13:20:02;26.20;70.40
17154;DHT22;8692;52.164;7.558;2023-06-26T13:22:30;26.20;67.80
17154;DHT22;8692;52.164;7.558;2023-06-26T13:24:58;26.10;68.20
17154;DHT22;8692;52.164;7.558;2023-06-26T13:27:26;26.10;68.20
17154;DHT22;8692;52.164;7.558;2023-06-26T13:29:54;26.10;68.50
17154;DHT22;8692;52.164;7.558;2023-06-26T13:32:22;26.10;67.20
17154;DHT22;8692;52.164;7.558;2023-06-26T13:34:52;26.10;65.00
17154;DHT22;8692;52.164;7.558;2023-06-26T13:37:21;26.10;67.00
17154;DHT22;8692;52.164;7.558;2023-06-26T13:39:49;26.10;68.30
17154;DHT22;8692;52.164;7.558;2023-06-26T13:42:18;26.10;67.90
17154;DHT22;8692;52.164;7.558;2023-06-26T13:44:50;26.20;67.50
17154;DHT22;8692;52.164;7.558;2023-06-26T13:47:30;26.30;65.70
17154;DHT22;8692;52.164;7.558;2023-06-26T13:49:59;26.20;65.40
17154;DHT22;8692;52.164;7.558;2023-06-26T13:52:27;26.20;66.20
17154;DHT22;8692;52.164;7.558;2023-06-26T13:54:55;26.10;65.00
17154;DHT22;8692;52.164;7.558;2023-06-26T13:57:23;26.00;64.70
17154;DHT22;8692;52.164;7.558;2023-06-26T13:59:51;26.10;64.90
17154;DHT22;8692;52.164;7.558;2023-06-26T14:02:19;26.10;65.10
17154;DHT22;8692;52.164;7.558;2023-06-26T14:04:47;26.20;65.70
17154;DHT22;8692;52.164;7.558;2023-06-26T14:07:17;26.10;64.60
17154;DHT22;8692;52.164;7.558;2023-06-26T14:09:45;26.10;66.10
17154;DHT22;8692;52.164;7.558;2023-06-26T14:12:13;26.00;65.90
17154;DHT22;8692;52.164;7.558;2023-06-26T14:14:43;26.00;66.70
17154;DHT22;8692;52.164;7.558;2023-06-26T14:17:11;26.00;65.60
17154;DHT22;8692;52.164;7.558;2023-06-26T14:19:43;25.90;66.00
17154;DHT22;8692;52.164;7.558;2023-06-26T14:22:12;25.80;66.50
17154;DHT22;8692;52.164;7.558;2023-06-26T14:24:42;25.80;66.30
17154;DHT22;8692;52.164;7.558;2023-06-26T14:27:10;25.90;65.70
17154;DHT22;8692;52.164;7.558;2023-06-26T14:29:38;26.10;65.90
17154;DHT22;8692;52.164;7.558;2023-06-26T14:32:08;26.20;64.60
17154;DHT22;8692;52.164;7.558;2023-06-26T14:34:36;26.20;63.80
17154;DHT22;8692;52.164;7.558;2023-06-26T14:37:07;26.10;63.50
17154;DHT22;8692;52.164;7.558;2023-06-26T14:39:37;26.10;63.30
17154;DHT22;8692;52.164;7.558;2023-06-26T14:42:07;26.10;63.60
17154;DHT22;8692;52.164;7.558;2023-06-26T14:44:39;26.10;63.10
17154;DHT22;8692;52.164;7.558;2023-06-26T14:47:09;26.20;61.70
17154;DHT22;8692;52.164;7.558;2023-06-26T14:49:37;26.20;61.50
17154;DHT22;8692;52.164;7.558;2023-06-26T14:52:06;26.20;62.60
17154;DHT22;8692;52.164;7.558;2023-06-26T14:54:34;26.20;62.40
17154;DHT22;8692;52.164;7.558;2023-06-26T14:57:03;26.20;63.30
17154;DHT22;8692;52.164;7.558;2023-06-26T14:59:33;26.20;63.30
17154;DHT22;8692;52.164;7.558;2023-06-26T15:02:01;26.10;63.10
17154;DHT22;8692;52.164;7.558;2023-06-26T15:04:29;26.20;64.00
17154;DHT22;8692;52.164;7.558;2023-06-26T15:06:57;26.30;63.00
17154;DHT22;8692;52.164;7.558;2023-06-26T15:09:26;26.30;63.00
17154;DHT22;8692;52.164;7.558;2023-06-26T15:11:54;26.20;63.60
17154;DHT22;8692;52.164;7.558;2023-06-26T15:14:22;26.30;62.30
17154;DHT22;8692;52.164;7.558;2023-06-26T15:16:51;26.30;62.80
17154;DHT22;8692;52.164;7.558;2023-06-26T15:19:19;26.20;63.30
17154;DHT22;8692;52.164;7.558;2023-06-26T15:21:47;26.20;61.60
17154;DHT22;8692;52.164;7.558;2023-06-26T15:24:15;26.00;62.00
17154;DHT22;8692;52.164;7.558;2023-06-26T15:26:44;25.90;62.10
17154;DHT22;8692;52.164;7.558;2023-06-26T15:29:12;25.90;62.40
17154;DHT22;8692;52.164;7.558;2023-06-26T15:31:41;25.90;62.10
17154;DHT22;8692;52.164;7.558;2023-06-26T15:34:11;26.00;61.70
17154;DHT22;8692;52.164;7.558;2023-06-26T15:36:40;26.00;60.80
17154;DHT22;8692;52.164;7.558;2023-06-26T15:39:11;26.10;60.90
17154;DHT22;8692;52.164;7.558;2023-06-26T15:41:39;26.00;61.50
17154;DHT22;8692;52.164;7.558;2023-06-26T15:44:07;25.80;62.40
17154;DHT22;8692;52.164;7.558;2023-06-26T15:46:35;25.60;62.80
17154;DHT22;8692;52.164;7.558;2023-06-26T15:49:03;25.50;62.30
17154;DHT22;8692;52.164;7.558;2023-06-26T15:51:32;25.40;63.70
17154;DHT22;8692;52.164;7.558;2023-06-26T15:54:04;25.50;63.20
17154;DHT22;8692;52.164;7.558;2023-06-26T15:56:32;25.50;62.80
17154;DHT22;8692;52.164;7.558;2023-06-26T15:59:03;25.60;63.30